Progreso, Mexico

4:17 AM EST on September 01, 2015 (GMT -0500)
INSTITUTO TECNOLOGICO SUPERIOR DE PROGRESO | | Change Station
CLOSE
Current Station
Personal Weather Station
Location: Progreso, YUCATáN
Elevation: 7 ft
Nearby Weather Stations

Elev 7 ft 21.28 °N, 89.65 °W | Updated 1 minute ago

Clear
Clear
76.0 °F
Feels Like 75 °F
N
3.0
Wind Variable Wind from SE
Gusts 3.0 mph

Today
High -- | Low -- °F
--% Chance of Precip.
Yesterday
High -- | Low -- °F
Precip. -- in
6:42 AM 7:14 PM
Waning Gibbous, 90% visible
Pressure 29.99 in
Visibility 6.0 miles
Clouds Clear
Heat Index 75 °F
Dew Point 74 °F
Humidity 95%
Rainfall 0.00 in
Snow Depth Not available.
UV 0.0 out of 12
Pollen Not available.
Air Quality Not available.
Flu Activity Not available.
METAR MMMD 010851Z 10007KT 6SM SKC 24/23 A2996 RMK SLP153 57002 913 ST E
Pressure 29.99 in
Visibility 6.0 miles
Clouds Clear
Heat Index 75 °F
Dew Point 74 °F
Humidity 95%
Rainfall 0.00 in
Snow Depth Not available.
UV 0.0 out of 12
Pollen Not available.
Air Quality Not available.
Flu Activity Not available.
METAR MMMD 010851Z 10007KT 6SM SKC 24/23 A2996 RMK SLP153 57002 913 ST E

10-Day Weather Forecast

×

Almanac

Astronomy

Sep. 01, 2015 Rise Set
Actual Time
Civil Twilight
Nautical Twilight
Astronomical Twilight
Moon
Length of Visible Light
Length of Day
Tomorrow will be .
, % of the Moon is Illuminated

Today's Extremes

Country Highs Country Lows

Community

WunderPhotos

Upload Photos

1,851,490 photos uploaded!

WunderBlogs® & News

Nearby

Air Quality

  Air Quality AQ Index Pollutant
Not available.

Snow Depth

Station Depth Elevation

Earthquake Activity

City Distance Mag. Time & Date
Minimum magnitude displayed is 2.5.

Coastal Water Temperatures

Place Temperature

Stations

Nearby Weather Stations

Station Location Temp. Windchill Dew Point Humidity Wind Precip. Elev Updated Type